Time;durP1;ratioP1;P1;durP2;ratioP2;P2;SDS_P1;SDS_P2;PMS_P1;PMS_P2;Temp;Humidity;BMP_temperature;BMP_pressure;BME280_temperature;BME280_humidity;BME280_pressure;Samples;Min_cycle;Max_cycle;Signal;HPM_P1;HPM_P2
2021/01/24 00:01:58;;;;;;;3.60;2.67;;;3.60;99.90;;;;;;5014293;28;20200;-83
2021/01/24 00:04:25;;;;;;;2.55;2.20;;;3.60;99.90;;;;;;5013247;28;20290;-83
2021/01/24 00:06:51;;;;;;;3.33;2.50;;;3.50;99.90;;;;;;5014031;28;20286;-84
2021/01/24 00:09:18;;;;;;;3.50;2.30;;;3.50;99.90;;;;;;5014355;28;20298;-83
2021/01/24 00:11:45;;;;;;;2.25;1.85;;;3.50;99.90;;;;;;5014328;28;20207;-83
2021/01/24 00:14:12;;;;;;;4.20;2.20;;;3.50;99.90;;;;;;5014189;28;20259;-83
2021/01/24 00:16:38;;;;;;;1.80;1.70;;;3.40;99.90;;;;;;5014132;28;20294;-84
2021/01/24 00:19:05;;;;;;;1.58;1.40;;;3.50;99.90;;;;;;5013735;28;20239;-83
2021/01/24 00:21:32;;;;;;;1.67;1.58;;;3.50;99.90;;;;;;5014187;28;20203;-83
2021/01/24 00:23:58;;;;;;;2.35;2.15;;;3.30;99.90;;;;;;5013724;28;20210;-83
2021/01/24 00:26:25;;;;;;;8.68;4.75;;;3.30;99.90;;;;;;4995084;28;20215;-83
2021/01/24 00:28:52;;;;;;;2.40;2.20;;;3.30;99.90;;;;;;5013964;28;20227;-82
2021/01/24 00:31:19;;;;;;;3.33;2.08;;;3.30;99.90;;;;;;5013704;28;20294;-83
2021/01/24 00:33:45;;;;;;;1.85;1.75;;;3.20;99.90;;;;;;5012802;28;20299;-83
2021/01/24 00:36:14;;;;;;;2.30;2.20;;;3.20;99.90;;;;;;5014009;28;20209;-83
2021/01/24 00:38:40;;;;;;;3.95;2.30;;;3.20;99.90;;;;;;5013765;28;20207;-83
2021/01/24 00:41:07;;;;;;;2.13;1.92;;;3.20;99.90;;;;;;5013946;28;20649;-83
2021/01/24 00:43:33;;;;;;;2.03;1.80;;;3.30;99.90;;;;;;5013765;28;20208;-83
2021/01/24 00:46:01;;;;;;;2.30;2.10;;;3.30;99.90;;;;;;5013762;28;20379;-83
2021/01/24 00:48:27;;;;;;;1.90;1.73;;;3.20;99.90;;;;;;5012466;28;20809;-83
2021/01/24 00:50:55;;;;;;;2.60;2.33;;;3.20;99.90;;;;;;5014864;28;20238;-84
2021/01/24 00:53:21;;;;;;;2.17;1.83;;;3.20;99.90;;;;;;5013420;28;20203;-83
2021/01/24 00:55:48;;;;;;;3.55;2.65;;;3.20;99.90;;;;;;5013496;28;20372;-84
2021/01/24 00:58:14;;;;;;;1.65;1.25;;;3.10;99.90;;;;;;5013598;28;20207;-84
2021/01/24 01:00:40;;;;;;;3.08;1.73;;;3.00;99.90;;;;;;5013516;28;20294;-83
2021/01/24 01:03:08;;;;;;;2.10;1.90;;;3.00;99.90;;;;;;5011786;28;20235;-85
2021/01/24 01:05:34;;;;;;;2.05;1.83;;;2.90;99.90;;;;;;5013389;28;20636;-84
2021/01/24 01:08:00;;;;;;;1.80;1.70;;;2.90;99.90;;;;;;5013088;28;20236;-84
2021/01/24 01:10:27;;;;;;;2.50;2.30;;;2.90;99.90;;;;;;5013347;28;20322;-84
2021/01/24 01:12:53;;;;;;;3.22;2.42;;;2.90;99.90;;;;;;5013137;28;20323;-84
2021/01/24 01:15:20;;;;;;;2.05;1.95;;;2.80;99.90;;;;;;5013412;28;20219;-85
2021/01/24 01:17:46;;;;;;;2.25;1.85;;;2.90;99.90;;;;;;5012070;28;20309;-84
2021/01/24 01:20:14;;;;;;;2.08;1.88;;;2.80;99.90;;;;;;5013328;28;20294;-85
2021/01/24 01:22:40;;;;;;;1.40;1.30;;;2.90;99.90;;;;;;5012967;28;20240;-85
2021/01/24 01:25:07;;;;;;;2.45;2.25;;;2.90;99.90;;;;;;5013141;28;20253;-85
2021/01/24 01:27:33;;;;;;;2.83;2.20;;;2.90;99.90;;;;;;5012970;28;20322;-84
2021/01/24 01:30:00;;;;;;;2.47;1.88;;;3.00;99.90;;;;;;5012576;28;20309;-85
2021/01/24 01:32:26;;;;;;;3.80;2.60;;;3.00;99.90;;;;;;5013176;28;20731;-84
2021/01/24 01:34:52;;;;;;;2.20;2.00;;;3.00;99.90;;;;;;5012484;28;20291;-84
2021/01/24 01:37:19;;;;;;;3.00;2.47;;;3.00;99.90;;;;;;5015936;28;20310;-85
2021/01/24 01:39:46;;;;;;;2.70;2.50;;;3.00;99.90;;;;;;5017662;28;20214;-85
2021/01/24 01:42:13;;;;;;;3.53;2.13;;;2.90;99.90;;;;;;5018333;28;20214;-84
2021/01/24 01:44:40;;;;;;;2.35;2.10;;;3.00;99.90;;;;;;5018396;28;20207;-85
2021/01/24 01:47:06;;;;;;;2.25;2.08;;;3.00;99.90;;;;;;5024568;28;20282;-85
2021/01/24 01:49:32;;;;;;;2.30;2.00;;;3.00;99.90;;;;;;5029069;28;20206;-85
2021/01/24 01:51:59;;;;;;;3.28;2.70;;;3.00;99.90;;;;;;5038548;28;20246;-84
2021/01/24 01:54:26;;;;;;;3.03;2.72;;;3.00;99.90;;;;;;5026016;28;20235;-84
2021/01/24 01:56:54;;;;;;;3.45;2.70;;;2.90;99.90;;;;;;5020005;28;20290;-85
2021/01/24 01:59:20;;;;;;;2.45;2.25;;;2.90;99.90;;;;;;5018953;28;20283;-85
2021/01/24 02:02:01;;;;;;;3.25;2.50;;;2.90;99.90;;;;;;5018438;28;20199;-86
2021/01/24 02:04:37;;;;;;;4.10;3.15;;;2.90;99.90;;;;;;5040114;28;20275;-85
2021/01/24 02:07:09;;;;;;;2.63;2.20;;;2.90;99.90;;;;;;5041170;28;20191;-84
2021/01/24 02:09:41;;;;;;;4.95;3.78;;;2.80;99.90;;;;;;5027922;28;20698;-85
2021/01/24 02:12:13;;;;;;;4.47;2.63;;;2.80;99.90;;;;;;5018404;28;20207;-85
2021/01/24 02:14:48;;;;;;;4.00;2.50;;;2.90;99.90;;;;;;5017092;28;20204;-84
2021/01/24 02:17:18;;;;;;;3.28;2.75;;;2.90;99.90;;;;;;5016754;28;20218;-85
2021/01/24 02:19:55;;;;;;;3.38;2.70;;;2.90;99.90;;;;;;5016092;28;20211;-85
2021/01/24 02:22:25;;;;;;;2.40;2.20;;;3.00;99.90;;;;;;5016995;28;20557;-85
2021/01/24 02:24:59;;;;;;;2.08;1.88;;;3.00;99.90;;;;;;5016649;28;20302;-85
2021/01/24 02:27:39;;;;;;;1.77;0.85;;;2.90;99.90;;;;;;5016677;28;20228;-86
2021/01/24 02:30:27;;;;;;;1.00;0.90;;;3.00;99.90;;;;;;5016800;28;20309;-85
2021/01/24 02:33:01;;;;;;;1.10;0.90;;;3.10;99.90;;;;;;5015346;28;20322;-89
2021/01/24 02:35:31;;;;;;;0.70;0.70;;;3.10;99.90;;;;;;5017154;28;20239;-91
2021/01/24 02:38:01;;;;;;;1.23;1.10;;;3.10;99.90;;;;;;5017615;28;20242;-91
2021/01/24 02:40:29;;;;;;;0.77;0.77;;;3.10;99.90;;;;;;5016425;28;20231;-86
2021/01/24 02:42:56;;;;;;;0.60;0.60;;;3.10;99.90;;;;;;5017994;28;20250;-84
2021/01/24 02:45:25;;;;;;;0.80;0.68;;;3.10;99.90;;;;;;5015825;28;20203;-88
2021/01/24 02:47:53;;;;;;;0.40;0.30;;;3.20;99.90;;;;;;5016958;28;20342;-90
2021/01/24 02:50:20;;;;;;;0.50;0.50;;;3.10;99.90;;;;;;5016545;28;20243;-83
2021/01/24 02:52:47;;;;;;;0.82;0.65;;;3.10;99.90;;;;;;4998121;28;20294;-84
2021/01/24 02:55:15;;;;;;;0.85;0.50;;;3.10;99.90;;;;;;5015589;28;20200;-84
2021/01/24 02:57:42;;;;;;;1.88;0.60;;;3.10;99.90;;;;;;5016147;28;20216;-82
2021/01/24 03:00:09;;;;;;;0.57;0.40;;;3.10;99.90;;;;;;5015856;28;20659;-82
2021/01/24 03:02:37;;;;;;;0.80;0.40;;;3.10;99.90;;;;;;5015027;28;20277;-85
2021/01/24 03:05:04;;;;;;;0.40;0.40;;;3.00;99.90;;;;;;5016114;28;20635;-87
2021/01/24 03:07:31;;;;;;;0.88;0.50;;;3.00;99.90;;;;;;5015752;28;20710;-82
2021/01/24 03:09:58;;;;;;;0.60;0.60;;;3.00;99.90;;;;;;5015554;28;20295;-84
2021/01/24 03:12:32;;;;;;;0.70;0.57;;;3.00;99.90;;;;;;5015924;28;20290;-86
2021/01/24 03:15:00;;;;;;;1.20;0.82;;;3.00;99.90;;;;;;5013160;28;20302;-85
2021/01/24 03:17:26;;;;;;;0.98;0.70;;;3.00;99.90;;;;;;5015548;28;20207;-86
2021/01/24 03:19:55;;;;;;;0.73;0.60;;;3.00;99.90;;;;;;5011042;28;20208;-84
2021/01/24 03:22:22;;;;;;;0.50;0.50;;;2.90;99.90;;;;;;5015300;28;20305;-82
2021/01/24 03:24:49;;;;;;;0.75;0.70;;;3.00;99.90;;;;;;5015947;28;20667;-84
2021/01/24 03:27:16;;;;;;;0.80;0.70;;;3.00;99.90;;;;;;5015376;28;20324;-86
2021/01/24 03:29:43;;;;;;;1.75;0.80;;;3.00;99.90;;;;;;5015285;28;20551;-86
2021/01/24 03:32:10;;;;;;;1.00;0.90;;;3.00;99.90;;;;;;5015467;28;20211;-88
2021/01/24 03:34:36;;;;;;;1.00;0.90;;;3.00;99.90;;;;;;5014226;28;20365;-86
2021/01/24 03:37:03;;;;;;;1.00;0.90;;;3.10;99.90;;;;;;5015180;28;20227;-83
2021/01/24 03:39:30;;;;;;;1.73;1.60;;;3.00;99.90;;;;;;5015358;28;20283;-88
2021/01/24 03:41:56;;;;;;;2.22;1.60;;;3.00;99.90;;;;;;5015317;28;20215;-85
2021/01/24 03:44:22;;;;;;;2.05;1.90;;;2.90;99.90;;;;;;5015077;28;20290;-83
2021/01/24 03:46:49;;;;;;;1.98;1.48;;;2.90;99.90;;;;;;5015385;28;20208;-84
2021/01/24 03:49:15;;;;;;;2.33;1.58;;;2.80;99.90;;;;;;5014090;28;20321;-85
2021/01/24 03:51:42;;;;;;;1.45;1.30;;;2.80;99.90;;;;;;5015749;28;20294;-84
2021/01/24 03:54:09;;;;;;;2.65;1.83;;;2.70;99.90;;;;;;5016450;28;20353;-86
2021/01/24 03:56:35;;;;;;;1.80;1.70;;;2.70;99.90;;;;;;5017114;28;20623;-92
2021/01/24 03:59:02;;;;;;;2.60;2.40;;;2.80;99.90;;;;;;5017474;28;20634;-86
2021/01/24 04:01:30;;;;;;;1.65;1.30;;;2.80;99.90;;;;;;5020320;28;20204;-90
2021/01/24 04:03:56;;;;;;;2.67;2.33;;;2.70;99.90;;;;;;5029188;28;20230;-86
2021/01/24 04:06:24;;;;;;;2.42;1.30;;;2.80;99.90;;;;;;5038512;28;20195;-88
2021/01/24 04:08:51;;;;;;;2.95;2.25;;;2.80;99.90;;;;;;4996128;28;20224;-91
2021/01/24 04:11:18;;;;;;;3.28;2.10;;;2.70;99.90;;;;;;4993375;28;20212;-86
2021/01/24 04:13:45;;;;;;;3.90;1.80;;;2.80;99.90;;;;;;4975199;28;20666;-92
2021/01/24 04:16:12;;;;;;;2.25;2.05;;;2.80;99.90;;;;;;4974197;28;20238;-90
2021/01/24 04:18:38;;;;;;;2.25;1.60;;;2.80;99.90;;;;;;4972998;28;20245;-86
2021/01/24 04:21:05;;;;;;;2.45;1.92;;;2.80;99.90;;;;;;4969003;28;20295;-88
2021/01/24 04:23:32;;;;;;;0.88;0.88;;;2.80;99.90;;;;;;4973541;28;20292;-85
2021/01/24 04:25:58;;;;;;;2.25;1.50;;;2.70;99.90;;;;;;4974212;28;20311;-87
2021/01/24 04:28:26;;;;;;;2.50;1.40;;;2.70;99.90;;;;;;4971976;28;20332;-85
2021/01/24 04:30:52;;;;;;;2.15;1.50;;;2.60;99.90;;;;;;4979564;28;20223;-91
2021/01/24 04:33:20;;;;;;;2.08;1.88;;;2.50;99.90;;;;;;4986555;28;20297;-90
2021/01/24 04:35:46;;;;;;;3.42;1.90;;;2.40;99.90;;;;;;4995227;28;20295;-92
2021/01/24 04:38:13;;;;;;;1.90;1.30;;;2.40;99.90;;;;;;4995681;28;20291;-92
2021/01/24 04:40:39;;;;;;;1.63;1.00;;;2.30;99.90;;;;;;4995443;28;20418;-88
2021/01/24 04:43:06;;;;;;;2.67;2.03;;;2.30;99.90;;;;;;4995196;28;20208;-87
2021/01/24 04:45:34;;;;;;;1.80;1.70;;;2.30;99.90;;;;;;4994987;28;20273;-88
2021/01/24 04:48:01;;;;;;;2.40;1.55;;;2.30;99.90;;;;;;4993457;28;20734;-86
2021/01/24 04:50:28;;;;;;;2.72;2.33;;;2.20;99.90;;;;;;5006960;28;20663;-88
2021/01/24 04:52:56;;;;;;;2.25;1.70;;;2.20;99.90;;;;;;5014214;28;20303;-84
2021/01/24 04:55:23;;;;;;;2.92;1.65;;;2.20;99.90;;;;;;5013656;28;20212;-83
2021/01/24 04:57:52;;;;;;;2.42;1.98;;;2.20;99.90;;;;;;5014052;28;20648;-85
2021/01/24 05:00:20;;;;;;;1.50;1.40;;;2.20;99.90;;;;;;5013830;28;20573;-84
2021/01/24 05:02:47;;;;;;;1.90;1.33;;;2.20;99.90;;;;;;5012909;28;20203;-84
2021/01/24 05:05:15;;;;;;;2.58;1.67;;;2.20;99.90;;;;;;5013800;28;20275;-86
2021/01/24 05:07:50;;;;;;;2.03;1.42;;;2.20;99.90;;;;;;5013859;28;20310;-86
2021/01/24 05:10:21;;;;;;;1.42;1.20;;;2.10;99.90;;;;;;5012969;28;20751;-87
2021/01/24 05:12:48;;;;;;;2.15;1.90;;;2.20;99.90;;;;;;5015452;28;20658;-84
2021/01/24 05:15:14;;;;;;;2.55;1.73;;;2.20;99.90;;;;;;5013826;28;20294;-91
2021/01/24 05:17:51;;;;;;;1.60;1.30;;;2.20;99.90;;;;;;5012383;28;20267;-85
2021/01/24 05:20:21;;;;;;;1.30;1.20;;;2.30;99.90;;;;;;5013801;28;20210;-85
2021/01/24 05:22:48;;;;;;;2.28;1.13;;;2.30;99.90;;;;;;5013667;28;20230;-89
2021/01/24 05:25:20;;;;;;;1.30;1.20;;;2.30;99.90;;;;;;5013894;28;20203;-91
2021/01/24 05:27:47;;;;;;;1.98;1.08;;;2.30;99.90;;;;;;4995704;28;20227;-92
2021/01/24 05:30:20;;;;;;;2.05;1.23;;;2.30;99.90;;;;;;5013449;28;20211;-85
2021/01/24 05:32:46;;;;;;;1.40;1.20;;;2.30;99.90;;;;;;5012517;28;20542;-84
2021/01/24 05:35:15;;;;;;;1.63;1.17;;;2.20;99.90;;;;;;5014799;28;20302;-86
2021/01/24 05:37:45;;;;;;;1.30;1.17;;;2.20;99.90;;;;;;5014054;28;20294;-89
2021/01/24 05:40:12;;;;;;;4.53;1.85;;;2.20;99.90;;;;;;5015217;28;20294;-84
2021/01/24 05:42:39;;;;;;;1.70;1.50;;;2.10;99.90;;;;;;5014409;28;20689;-83
2021/01/24 05:45:10;;;;;;;1.52;1.15;;;2.10;99.90;;;;;;5013339;28;20349;-89
2021/01/24 05:47:38;;;;;;;2.60;1.40;;;2.10;99.90;;;;;;5012470;28;20231;-87
2021/01/24 05:50:10;;;;;;;0.80;0.80;;;2.20;99.90;;;;;;5013854;28;20208;-84
2021/01/24 05:52:40;;;;;;;1.83;1.10;;;2.10;99.90;;;;;;5013889;28;20253;-80
2021/01/24 05:55:08;;;;;;;2.55;1.77;;;2.10;99.90;;;;;;5013849;28;20207;-83
2021/01/24 05:57:36;;;;;;;1.63;1.42;;;2.00;99.90;;;;;;5012245;28;20214;-82
2021/01/24 06:00:06;;;;;;;1.30;1.13;;;2.00;99.90;;;;;;5014162;28;20266;-84
2021/01/24 06:02:32;;;;;;;2.70;1.83;;;2.00;99.90;;;;;;5013402;28;20299;-83
2021/01/24 06:04:59;;;;;;;2.08;1.80;;;1.90;99.90;;;;;;5014200;28;20338;-88
2021/01/24 06:07:26;;;;;;;3.05;1.83;;;1.80;99.90;;;;;;5022878;28;20199;-84
2021/01/24 06:09:53;;;;;;;3.00;2.67;;;1.70;99.90;;;;;;5036123;28;20196;-87
2021/01/24 06:12:23;;;;;;;1.85;1.55;;;1.60;99.90;;;;;;5016129;28;20282;-84
2021/01/24 06:14:51;;;;;;;2.05;1.42;;;1.60;99.90;;;;;;5001142;28;20295;-86
2021/01/24 06:17:37;;;;;;;4.13;2.75;;;1.60;99.90;;;;;;5017749;28;20219;-85
2021/01/24 06:20:07;;;;;;;3.42;1.70;;;1.60;99.90;;;;;;5017978;28;20204;-84
2021/01/24 06:22:42;;;;;;;1.25;1.00;;;1.60;99.90;;;;;;5010460;28;20252;-86
2021/01/24 06:25:14;;;;;;;2.70;1.65;;;1.60;99.90;;;;;;5004616;28;20211;-82
2021/01/24 06:27:46;;;;;;;3.53;2.20;;;1.70;99.90;;;;;;5002324;28;20320;-86
2021/01/24 06:30:17;;;;;;;1.20;0.95;;;1.70;99.90;;;;;;4997335;28;20291;-87
2021/01/24 06:32:44;;;;;;;3.05;1.55;;;1.70;99.90;;;;;;4996257;28;20291;-90
2021/01/24 06:35:19;;;;;;;3.92;3.47;;;1.80;99.90;;;;;;4997529;28;20633;-87
2021/01/24 06:37:58;;;;;;;3.35;2.45;;;1.70;99.90;;;;;;4997593;28;20884;-84
2021/01/24 06:40:28;;;;;;;3.85;2.22;;;1.70;99.90;;;;;;4996990;28;20682;-85
2021/01/24 06:42:57;;;;;;;2.47;1.85;;;1.60;99.90;;;;;;4996827;28;20254;-86
2021/01/24 06:45:38;;;;;;;4.18;3.60;;;1.60;99.90;;;;;;4996710;28;20238;-86
2021/01/24 06:48:06;;;;;;;2.03;1.33;;;1.50;99.90;;;;;;4996465;28;20628;-87
2021/01/24 06:50:38;;;;;;;3.20;1.75;;;1.50;99.90;;;;;;4997169;28;20294;-90
2021/01/24 06:53:05;;;;;;;2.53;2.13;;;1.40;99.90;;;;;;4997137;28;20208;-86
2021/01/24 06:55:33;;;;;;;1.70;1.60;;;1.40;99.90;;;;;;4996472;28;20287;-90
2021/01/24 06:58:22;;;;;;;2.88;1.88;;;1.30;99.90;;;;;;4996546;28;20308;-86
2021/01/24 07:00:49;;;;;;;2.72;2.50;;;1.30;99.90;;;;;;4996492;28;20212;-86
2021/01/24 07:03:17;;;;;;;2.83;2.00;;;1.30;99.90;;;;;;5014573;28;20212;-89
2021/01/24 07:05:45;;;;;;;2.25;1.88;;;1.20;99.90;;;;;;5016388;28;20318;-85
2021/01/24 07:08:30;;;;;;;1.75;1.65;;;1.20;99.90;;;;;;5020582;28;20315;-88
2021/01/24 07:10:58;;;;;;;2.80;2.60;;;1.20;99.90;;;;;;5021469;28;20659;-87
2021/01/24 07:13:32;;;;;;;3.95;2.70;;;1.20;99.90;;;;;;5020519;28;20322;-87
2021/01/24 07:16:00;;;;;;;2.25;1.83;;;1.20;99.90;;;;;;5024846;28;20207;-86
2021/01/24 07:18:36;;;;;;;2.45;2.13;;;1.20;99.90;;;;;;5019522;28;20271;-86
2021/01/24 07:21:03;;;;;;;2.25;2.05;;;1.20;99.90;;;;;;5026083;28;20210;-88
2021/01/24 07:23:31;;;;;;;2.88;2.65;;;1.20;99.90;;;;;;5018454;28;20683;-90
2021/01/24 07:26:00;;;;;;;4.82;3.55;;;1.30;99.90;;;;;;5018584;28;20597;-87
2021/01/24 07:28:29;;;;;;;3.13;1.92;;;1.40;99.90;;;;;;5016880;28;20326;-85
2021/01/24 07:30:59;;;;;;;3.63;2.63;;;1.50;99.90;;;;;;5016485;28;20302;-85
2021/01/24 07:33:27;;;;;;;2.45;2.10;;;1.70;99.90;;;;;;4996965;28;20714;-86
2021/01/24 07:35:57;;;;;;;3.17;1.83;;;1.70;99.90;;;;;;4993466;28;20251;-84
2021/01/24 07:38:26;;;;;;;6.57;5.97;;;1.80;99.90;;;;;;4991250;28;20208;-85
2021/01/24 07:41:01;;;;;;;2.75;2.55;;;1.80;99.90;;;;;;4994985;28;20208;-87
2021/01/24 07:43:29;;;;;;;3.55;2.50;;;1.80;99.90;;;;;;4997354;28;20642;-90
2021/01/24 07:45:56;;;;;;;2.63;1.60;;;1.80;99.90;;;;;;4995119;28;20310;-89
2021/01/24 07:48:24;;;;;;;2.78;1.80;;;1.90;99.90;;;;;;4995725;28;20343;-89
2021/01/24 07:50:50;;;;;;;3.00;1.80;;;1.80;99.90;;;;;;4995245;28;20663;-86
2021/01/24 07:53:17;;;;;;;3.30;1.35;;;1.80;99.90;;;;;;4999736;28;20290;-86
2021/01/24 07:55:44;;;;;;;3.95;2.50;;;2.00;99.90;;;;;;5015948;28;20638;-86
2021/01/24 07:58:12;;;;;;;3.00;2.50;;;1.90;99.90;;;;;;5015480;28;20671;-93
2021/01/24 08:00:39;;;;;;;3.65;2.10;;;2.00;99.90;;;;;;5015028;28;20203;-91
2021/01/24 08:03:06;;;;;;;2.33;2.13;;;2.10;99.90;;;;;;5012834;28;20346;-86
2021/01/24 08:05:33;;;;;;;3.60;2.42;;;2.20;99.90;;;;;;5015473;28;20291;-93
2021/01/24 08:07:59;;;;;;;3.70;2.20;;;2.30;99.90;;;;;;5017303;28;20601;-92
2021/01/24 08:10:30;;;;;;;3.85;2.30;;;2.60;99.90;;;;;;4997096;28;20345;-83
2021/01/24 08:12:57;;;;;;;6.47;3.78;;;2.60;99.90;;;;;;5014769;28;20266;-91
2021/01/24 08:15:24;;;;;;;1.92;1.70;;;2.40;99.90;;;;;;5015952;28;20290;-84
2021/01/24 08:17:51;;;;;;;4.57;1.90;;;2.40;99.90;;;;;;5013422;28;20250;-83
2021/01/24 08:20:20;;;;;;;1.63;1.52;;;2.50;99.90;;;;;;5014867;28;20204;-82
2021/01/24 08:22:47;;;;;;;2.17;1.70;;;2.40;99.90;;;;;;5014774;28;20615;-83
2021/01/24 08:25:15;;;;;;;2.28;1.50;;;2.60;99.90;;;;;;5014605;28;20250;-81
2021/01/24 08:27:42;;;;;;;2.08;1.70;;;2.50;99.90;;;;;;5014573;28;20235;-82
2021/01/24 08:30:10;;;;;;;8.50;3.33;;;2.40;99.90;;;;;;5014639;28;20295;-82
2021/01/24 08:32:39;;;;;;;1.58;1.27;;;2.50;99.90;;;;;;5013873;28;20358;-85
2021/01/24 08:35:07;;;;;;;4.75;4.15;;;2.50;99.90;;;;;;5014379;28;20269;-82
2021/01/24 08:37:34;;;;;;;4.32;1.95;;;2.40;99.90;;;;;;5013972;28;20214;-82
2021/01/24 08:40:01;;;;;;;2.40;2.08;;;2.60;99.90;;;;;;5014206;28;20200;-83
2021/01/24 08:42:43;;;;;;;1.77;1.05;;;2.70;99.90;;;;;;5014326;28;20298;-86
2021/01/24 08:45:13;;;;;;;1.90;1.77;;;2.90;99.90;;;;;;5014035;28;20644;-85
2021/01/24 08:47:40;;;;;;;2.03;1.83;;;3.00;99.90;;;;;;5011814;28;20243;-84
2021/01/24 08:50:10;;;;;;;3.05;1.90;;;3.20;99.90;;;;;;5013651;28;20206;-85
2021/01/24 08:52:37;;;;;;;3.47;1.88;;;3.50;99.90;;;;;;5013944;28;20203;-83
2021/01/24 08:55:05;;;;;;;2.42;2.03;;;3.50;99.90;;;;;;5013692;28;20290;-88
2021/01/24 08:57:34;;;;;;;2.42;1.85;;;3.40;99.90;;;;;;5013824;28;20294;-82
2021/01/24 09:00:02;;;;;;;2.45;2.00;;;3.30;99.90;;;;;;5013085;28;20242;-81
2021/01/24 09:02:33;;;;;;;3.78;2.67;;;3.30;99.90;;;;;;5013154;28;20733;-82
2021/01/24 09:05:01;;;;;;;1.60;1.42;;;3.30;99.90;;;;;;5012908;28;20298;-83
2021/01/24 09:07:41;;;;;;;4.15;1.60;;;3.20;99.90;;;;;;5013185;28;20215;-82
2021/01/24 09:10:19;;;;;;;4.15;2.22;;;3.20;99.90;;;;;;5014300;28;20306;-84
2021/01/24 09:12:46;;;;;;;1.98;1.10;;;3.10;99.90;;;;;;5013100;28;20321;-84
2021/01/24 09:15:13;;;;;;;4.07;3.00;;;3.10;99.90;;;;;;5012407;28;21057;-82
2021/01/24 09:17:40;;;;;;;2.38;2.13;;;3.10;99.90;;;;;;5012153;28;20545;-83
2021/01/24 09:20:08;;;;;;;1.60;1.50;;;3.10;99.90;;;;;;5013466;28;20203;-82
2021/01/24 09:22:35;;;;;;;2.38;1.65;;;3.00;99.90;;;;;;5013870;28;20230;-83
2021/01/24 09:25:02;;;;;;;1.10;1.00;;;3.10;99.90;;;;;;5013673;28;20317;-86
2021/01/24 09:27:29;;;;;;;2.00;1.80;;;3.00;99.90;;;;;;5012624;28;20569;-88
2021/01/24 09:29:55;;;;;;;3.75;2.10;;;3.00;99.90;;;;;;5012709;28;20851;-84
2021/01/24 09:32:21;;;;;;;1.98;1.88;;;3.00;99.90;;;;;;5013812;28;20245;-88
2021/01/24 09:34:48;;;;;;;3.70;2.90;;;3.00;99.90;;;;;;5012054;28;20230;-84
2021/01/24 09:37:15;;;;;;;1.55;1.45;;;3.00;99.90;;;;;;5011862;28;20210;-87
2021/01/24 09:39:44;;;;;;;1.50;1.40;;;2.80;99.90;;;;;;5013240;28;20309;-86
2021/01/24 09:42:11;;;;;;;3.28;2.30;;;2.80;99.90;;;;;;5012995;28;20910;-83
2021/01/24 09:44:37;;;;;;;2.38;1.48;;;2.80;99.90;;;;;;5013411;28;20729;-83
2021/01/24 09:47:04;;;;;;;1.65;1.50;;;2.90;99.90;;;;;;5013512;28;20234;-85
2021/01/24 09:49:30;;;;;;;2.10;1.48;;;2.90;99.90;;;;;;5011741;28;20237;-89
2021/01/24 09:51:57;;;;;;;2.88;2.58;;;2.80;99.90;;;;;;5013563;28;20322;-85
2021/01/24 09:54:24;;;;;;;1.90;1.70;;;2.70;99.90;;;;;;5013550;28;20722;-84
2021/01/24 09:56:51;;;;;;;3.08;1.95;;;2.80;99.90;;;;;;5013344;28;20207;-83
2021/01/24 09:59:18;;;;;;;2.15;1.90;;;2.90;99.90;;;;;;5017851;28;20214;-84
2021/01/24 10:01:44;;;;;;;1.80;1.70;;;2.90;99.90;;;;;;5017939;28;20214;-82
2021/01/24 10:04:11;;;;;;;3.53;2.30;;;3.00;99.90;;;;;;5015426;28;20241;-82
2021/01/24 10:06:38;;;;;;;3.78;2.72;;;2.90;99.90;;;;;;5015965;28;20208;-85
2021/01/24 10:09:05;;;;;;;2.10;1.90;;;3.00;99.90;;;;;;5017734;28;20235;-86
2021/01/24 10:11:33;;;;;;;2.10;1.90;;;2.90;99.90;;;;;;5017943;28;20734;-85
2021/01/24 10:13:59;;;;;;;4.05;2.03;;;3.00;99.90;;;;;;5021462;28;20270;-85
2021/01/24 10:16:26;;;;;;;2.63;1.80;;;3.00;99.90;;;;;;5029676;28;20235;-89
2021/01/24 10:18:53;;;;;;;5.30;2.33;;;3.00;99.90;;;;;;5033711;28;20264;-83
2021/01/24 10:21:19;;;;;;;2.90;2.40;;;3.00;99.90;;;;;;5034119;28;20231;-87
2021/01/24 10:23:45;;;;;;;2.50;2.03;;;3.00;99.90;;;;;;5027258;28;20203;-87
2021/01/24 10:26:14;;;;;;;5.30;2.90;;;3.20;99.90;;;;;;5035942;28;20218;-87
2021/01/24 10:28:41;;;;;;;3.80;2.50;;;3.10;99.90;;;;;;5037902;28;20235;-88
2021/01/24 10:31:08;;;;;;;5.05;3.05;;;3.10;99.90;;;;;;5036614;28;20227;-83
2021/01/24 10:33:34;;;;;;;2.60;1.73;;;3.20;99.90;;;;;;5027638;28;20226;-86
2021/01/24 10:36:00;;;;;;;3.25;2.33;;;3.10;99.90;;;;;;5027731;28;20234;-89
2021/01/24 10:38:27;;;;;;;2.10;1.48;;;3.20;99.90;;;;;;5018481;28;20282;-89
2021/01/24 10:40:55;;;;;;;1.92;1.80;;;3.30;99.90;;;;;;5017053;28;20290;-84
2021/01/24 10:43:21;;;;;;;2.25;2.05;;;3.40;99.90;;;;;;5017032;28;20208;-85
2021/01/24 10:45:48;;;;;;;2.67;2.47;;;3.40;99.90;;;;;;5016702;28;20236;-89
2021/01/24 10:48:15;;;;;;;2.25;2.05;;;3.30;99.90;;;;;;5015146;28;20330;-82
2021/01/24 10:50:41;;;;;;;1.92;1.45;;;3.40;99.90;;;;;;5016271;28;20629;-84
2021/01/24 10:53:08;;;;;;;5.10;2.13;;;3.40;99.90;;;;;;5016773;28;20286;-83
2021/01/24 10:55:36;;;;;;;3.55;2.22;;;3.30;99.90;;;;;;5016651;28;20299;-85
2021/01/24 10:58:03;;;;;;;2.92;2.20;;;3.40;99.90;;;;;;5016440;28;20211;-86
2021/01/24 11:00:35;;;;;;;2.05;1.60;;;3.60;99.90;;;;;;5016158;28;20231;-86
2021/01/24 11:03:04;;;;;;;2.80;1.95;;;3.60;99.90;;;;;;5015305;28;20215;-90
2021/01/24 11:05:30;;;;;;;2.35;1.52;;;3.80;99.90;;;;;;5018083;28;20211;-90
2021/01/24 11:07:57;;;;;;;1.80;1.70;;;3.70;99.90;;;;;;5018259;28;20227;-91
2021/01/24 11:10:23;;;;;;;1.60;1.48;;;3.50;99.90;;;;;;5017504;28;20659;-90
2021/01/24 11:12:49;;;;;;;2.03;1.60;;;3.70;99.90;;;;;;5017942;28;20267;-89
2021/01/24 11:15:17;;;;;;;5.32;1.90;;;3.70;99.90;;;;;;5017013;28;20238;-88
2021/01/24 11:17:44;;;;;;;1.15;0.93;;;3.50;99.90;;;;;;5016543;28;20739;-85
2021/01/24 11:20:11;;;;;;;1.17;1.08;;;3.70;99.90;;;;;;5015983;28;20199;-87
2021/01/24 11:22:38;;;;;;;1.40;1.30;;;3.70;99.90;;;;;;5016550;28;20297;-90
2021/01/24 11:25:05;;;;;;;1.90;1.80;;;3.90;99.70;;;;;;5016598;28;20294;-88
2021/01/24 11:27:32;;;;;;;2.55;1.00;;;4.00;99.00;;;;;;5015770;28;20290;-89
2021/01/24 11:29:59;;;;;;;2.15;1.45;;;4.00;98.90;;;;;;5015222;28;20231;-85
2021/01/24 11:32:25;;;;;;;1.85;1.30;;;4.10;98.70;;;;;;5014033;28;20235;-91
2021/01/24 11:34:52;;;;;;;2.20;2.00;;;4.00;98.40;;;;;;5015460;28;20823;-86
2021/01/24 11:37:21;;;;;;;2.72;1.75;;;4.20;98.40;;;;;;5016377;28;20207;-90
2021/01/24 11:39:47;;;;;;;2.20;2.05;;;4.20;98.40;;;;;;5016544;28;20298;-91
2021/01/24 11:42:14;;;;;;;4.82;2.88;;;4.10;98.20;;;;;;5014976;28;20443;-91
2021/01/24 11:44:41;;;;;;;4.50;2.60;;;4.20;98.60;;;;;;5015682;28;20310;-91
2021/01/24 11:47:08;;;;;;;1.90;1.58;;;4.10;98.30;;;;;;5016232;28;20246;-91
2021/01/24 11:49:34;;;;;;;1.63;1.52;;;4.00;98.40;;;;;;5017364;28;20326;-92
2021/01/24 11:52:01;;;;;;;3.13;2.15;;;4.10;98.50;;;;;;5018990;28;20227;-84
2021/01/24 11:54:28;;;;;;;1.75;1.30;;;4.10;98.50;;;;;;5017528;28;20286;-90
2021/01/24 11:56:54;;;;;;;1.90;1.67;;;3.90;98.70;;;;;;5015156;28;20514;-91
2021/01/24 11:59:21;;;;;;;1.70;1.40;;;3.80;98.70;;;;;;5015117;28;20685;-92
2021/01/24 12:01:47;;;;;;;1.30;1.20;;;3.70;99.00;;;;;;5013773;28;20766;-90
2021/01/24 12:04:14;;;;;;;2.13;1.23;;;3.70;99.40;;;;;;5014007;28;20199;-89
2021/01/24 12:06:40;;;;;;;1.50;1.40;;;3.70;99.10;;;;;;5014724;28;20191;-83
2021/01/24 12:09:06;;;;;;;1.58;1.27;;;3.60;98.90;;;;;;5014541;28;20728;-93
2021/01/24 12:11:35;;;;;;;3.30;1.52;;;3.60;99.50;;;;;;5014674;28;20251;-91
2021/01/24 12:14:01;;;;;;;2.28;1.48;;;3.70;99.80;;;;;;5015515;28;20223;-90
2021/01/24 12:16:28;;;;;;;1.60;1.00;;;3.70;99.90;;;;;;5014420;28;20290;-88
2021/01/24 12:18:54;;;;;;;1.20;1.10;;;3.60;99.90;;;;;;5013036;28;20263;-87
2021/01/24 12:21:21;;;;;;;7.75;1.65;;;3.60;99.90;;;;;;4995318;28;20286;-89
2021/01/24 12:23:47;;;;;;;1.20;1.10;;;3.60;99.70;;;;;;5013714;28;20683;-87
2021/01/24 12:26:14;;;;;;;1.42;1.33;;;3.50;99.90;;;;;;5014509;28;20224;-89
2021/01/24 12:28:41;;;;;;;1.75;0.90;;;3.60;99.90;;;;;;5013297;28;20223;-86
2021/01/24 12:31:07;;;;;;;3.67;1.30;;;3.80;99.80;;;;;;5013768;28;20265;-85
2021/01/24 12:33:34;;;;;;;2.05;1.88;;;3.70;99.80;;;;;;5013677;28;20278;-89
2021/01/24 12:36:00;;;;;;;3.35;1.40;;;3.70;99.90;;;;;;5014126;28;20195;-86
2021/01/24 12:38:26;;;;;;;1.55;1.45;;;3.60;99.90;;;;;;5013387;28;20294;-85
2021/01/24 12:40:53;;;;;;;1.27;1.17;;;3.70;99.70;;;;;;5013209;28;20286;-85
2021/01/24 12:43:19;;;;;;;2.05;1.15;;;3.70;99.50;;;;;;5013161;28;20278;-86
2021/01/24 12:45:47;;;;;;;4.45;1.60;;;3.70;99.50;;;;;;5013524;28;20333;-85
2021/01/24 12:48:13;;;;;;;1.50;1.40;;;3.60;99.30;;;;;;5012714;28;20702;-86
2021/01/24 12:50:40;;;;;;;1.75;1.63;;;3.70;99.50;;;;;;5014154;28;20192;-85
2021/01/24 12:53:07;;;;;;;2.15;1.58;;;3.80;99.20;;;;;;5013216;28;20442;-88
2021/01/24 12:55:33;;;;;;;3.22;1.65;;;3.80;99.60;;;;;;5013804;28;20206;-85
2021/01/24 12:58:00;;;;;;;2.60;1.40;;;3.80;98.70;;;;;;5013765;28;20634;-93
2021/01/24 13:00:29;;;;;;;1.95;1.73;;;3.70;98.70;;;;;;5013955;28;20230;-88
2021/01/24 13:02:57;;;;;;;4.32;2.05;;;3.80;99.10;;;;;;5011856;28;20676;-88